createdAt,value
2019-04-06T00:02:36.581Z,2.45
2019-04-06T00:05:11.676Z,1.95
2019-04-06T00:07:46.126Z,2.00
2019-04-06T00:10:20.547Z,2.35
2019-04-06T00:12:55.008Z,1.10
2019-04-06T00:15:29.436Z,1.98
2019-04-06T00:18:04.039Z,1.70
2019-04-06T00:20:38.464Z,6.53
2019-04-06T00:23:12.925Z,2.37
2019-04-06T00:25:47.350Z,1.55
2019-04-06T00:28:21.802Z,3.92
2019-04-06T00:31:14.622Z,3.10
2019-04-06T00:33:49.222Z,2.10
2019-04-06T00:36:23.604Z,1.80
2019-04-06T00:38:58.035Z,2.58
2019-04-06T00:41:33.199Z,3.22
2019-04-06T00:44:07.624Z,1.98
2019-04-06T00:46:42.014Z,2.17
2019-04-06T00:49:16.485Z,2.83
2019-04-06T00:51:50.912Z,2.55
2019-04-06T00:54:25.362Z,2.60
2019-04-06T00:57:00.461Z,2.33
2019-04-06T00:59:34.918Z,2.60
2019-04-06T01:02:09.809Z,3.12
2019-04-06T01:04:44.838Z,2.35
2019-04-06T01:07:19.741Z,2.67
2019-04-06T01:09:54.794Z,2.98
2019-04-06T01:12:29.242Z,3.10
2019-04-06T01:15:04.711Z,3.45
2019-04-06T01:17:39.606Z,3.92
2019-04-06T01:20:14.144Z,3.98
2019-04-06T01:22:50.826Z,6.15
2019-04-06T01:25:25.232Z,5.30
2019-04-06T01:27:59.654Z,5.22
2019-04-06T01:30:34.685Z,4.83
2019-04-06T01:33:09.119Z,5.33
2019-04-06T01:35:44.153Z,5.50
2019-04-06T01:38:18.607Z,5.47
2019-04-06T01:40:53.036Z,7.28
2019-04-06T01:43:28.421Z,6.05
2019-04-06T01:46:02.885Z,6.62
2019-04-06T01:48:38.975Z,7.60
2019-04-06T01:51:13.425Z,8.80
2019-04-06T01:53:48.422Z,10.05
2019-04-06T01:56:22.891Z,9.03
2019-04-06T01:58:57.319Z,8.63
2019-04-06T02:01:36.386Z,7.95
2019-04-06T02:04:11.651Z,7.22
2019-04-06T02:06:46.115Z,8.35
2019-04-06T02:09:20.533Z,8.03
2019-04-06T02:11:54.990Z,8.53
2019-04-06T02:14:30.593Z,8.95
2019-04-06T02:17:05.052Z,8.03
2019-04-06T02:19:39.487Z,8.33
2019-04-06T02:22:13.950Z,8.45
2019-04-06T02:24:48.374Z,9.10
2019-04-06T02:27:22.851Z,7.87
2019-04-06T02:30:15.243Z,7.62
2019-04-06T02:33:03.352Z,5.62
2019-04-06T02:35:39.487Z,7.58
2019-04-06T02:38:31.914Z,7.15
2019-04-06T02:41:11.079Z,7.83
2019-04-06T02:43:45.554Z,8.20
2019-04-06T02:46:20.194Z,7.90
2019-04-06T02:48:54.795Z,7.85
2019-04-06T02:51:29.187Z,7.20
2019-04-06T02:54:03.639Z,7.60
2019-04-06T02:56:45.463Z,9.70
2019-04-06T02:59:14.139Z,8.80
2019-04-06T03:01:48.655Z,7.58
2019-04-06T03:04:23.137Z,8.18
2019-04-06T03:06:57.598Z,9.00
2019-04-06T03:09:32.152Z,8.45
2019-04-06T03:12:06.627Z,8.75
2019-04-06T03:14:44.220Z,9.93
2019-04-06T03:17:18.241Z,9.00
2019-04-06T03:19:52.702Z,9.60
2019-04-06T03:22:27.707Z,8.35
2019-04-06T03:25:02.252Z,9.40
2019-04-06T03:27:36.676Z,9.95
2019-04-06T03:30:11.241Z,10.30
2019-04-06T03:32:46.957Z,10.25
2019-04-06T03:35:21.551Z,10.15
2019-04-06T03:37:56.131Z,9.40
2019-04-06T03:40:31.324Z,9.73
2019-04-06T03:43:05.727Z,9.25
2019-04-06T03:45:40.375Z,9.25
2019-04-06T03:48:14.817Z,10.23
2019-04-06T03:50:50.358Z,9.70
2019-04-06T03:53:24.768Z,9.68
2019-04-06T03:55:59.896Z,11.40
2019-04-06T03:58:34.902Z,11.28
2019-04-06T04:01:09.385Z,10.58
2019-04-06T04:03:43.819Z,11.18
2019-04-06T04:06:18.295Z,11.70
2019-04-06T04:08:52.742Z,12.47
2019-04-06T04:11:27.220Z,12.18
2019-04-06T04:14:01.680Z,13.85
2019-04-06T04:16:36.391Z,11.97
2019-04-06T04:19:10.994Z,12.10
2019-04-06T04:21:45.450Z,12.78
2019-04-06T04:24:19.896Z,12.07
2019-04-06T04:26:54.348Z,13.43
2019-04-06T04:29:29.956Z,12.35
2019-04-06T04:32:04.493Z,12.65
2019-04-06T04:34:39.338Z,12.63
2019-04-06T04:37:15.454Z,13.45
2019-04-06T04:39:50.146Z,13.22
2019-04-06T04:42:25.866Z,12.68
2019-04-06T04:45:00.303Z,12.70
2019-04-06T04:47:34.950Z,13.45
2019-04-06T04:50:09.990Z,13.70
2019-04-06T04:52:44.491Z,13.13
2019-04-06T04:55:19.081Z,12.82
2019-04-06T04:57:53.603Z,10.55
2019-04-06T05:00:29.653Z,10.93
2019-04-06T05:03:05.739Z,9.45
2019-04-06T05:05:40.181Z,8.63
2019-04-06T05:08:17.555Z,8.73
2019-04-06T05:10:51.995Z,8.05
2019-04-06T05:13:26.867Z,7.75
2019-04-06T05:16:13.478Z,8.90
2019-04-06T05:18:47.929Z,9.13
2019-04-06T05:21:22.389Z,9.40
2019-04-06T05:23:57.424Z,11.15
2019-04-06T05:26:37.351Z,9.80
2019-04-06T05:29:07.959Z,9.50
2019-04-06T05:31:42.553Z,10.25
2019-04-06T05:34:17.066Z,9.93
2019-04-06T05:36:51.492Z,9.03
2019-04-06T05:39:26.620Z,9.85
2019-04-06T05:42:01.616Z,10.50
2019-04-06T05:44:36.092Z,10.18
2019-04-06T05:47:10.521Z,9.70
2019-04-06T05:49:45.020Z,7.95
2019-04-06T05:52:19.783Z,7.65
2019-04-06T05:54:54.312Z,6.78
2019-04-06T05:57:31.806Z,6.62
2019-04-06T06:00:09.841Z,5.87
2019-04-06T06:02:43.750Z,7.42
2019-04-06T06:05:18.226Z,7.45
2019-04-06T06:07:53.818Z,7.10
2019-04-06T06:10:28.282Z,6.20
2019-04-06T06:13:02.715Z,5.00
2019-04-06T06:15:37.755Z,5.40
2019-04-06T06:18:12.172Z,4.30
2019-04-06T06:20:49.320Z,4.67
2019-04-06T06:23:23.470Z,5.22
2019-04-06T06:25:58.502Z,5.20
2019-04-06T06:28:34.559Z,4.25
2019-04-06T06:31:10.930Z,3.80
2019-04-06T06:33:47.081Z,3.60
2019-04-06T06:36:21.564Z,3.08
2019-04-06T06:38:55.955Z,3.22
2019-04-06T06:41:30.419Z,3.22
2019-04-06T06:44:04.858Z,4.40
2019-04-06T06:46:39.317Z,3.27
2019-04-06T06:49:13.770Z,5.45
2019-04-06T06:51:48.230Z,4.42
2019-04-06T06:54:22.657Z,4.15
2019-04-06T06:56:57.187Z,3.90
2019-04-06T06:59:31.576Z,4.42
2019-04-06T07:02:08.847Z,4.60
2019-04-06T07:04:43.285Z,4.28
2019-04-06T07:07:17.815Z,5.12
2019-04-06T07:09:52.251Z,6.92
2019-04-06T07:12:26.716Z,5.25
2019-04-06T07:15:01.166Z,4.40
2019-04-06T07:17:35.914Z,6.15
2019-04-06T07:20:12.515Z,7.80
2019-04-06T07:22:47.011Z,9.38
2019-04-06T07:25:21.435Z,10.53
2019-04-06T07:27:55.903Z,9.18
2019-04-06T07:30:30.331Z,8.98
2019-04-06T07:33:04.875Z,11.57
2019-04-06T07:35:39.313Z,6.20
2019-04-06T07:38:13.769Z,9.05
2019-04-06T07:40:48.206Z,18.77
2019-04-06T07:43:24.317Z,8.50
2019-04-06T07:45:58.740Z,7.17
2019-04-06T07:48:33.257Z,7.33
2019-04-06T07:51:07.655Z,7.53
2019-04-06T07:53:42.125Z,8.30
2019-04-06T07:56:16.783Z,8.33
2019-04-06T07:58:51.475Z,10.03
2019-04-06T08:01:27.685Z,7.92
2019-04-06T08:04:02.394Z,7.87
2019-04-06T08:06:37.467Z,8.45
2019-04-06T08:09:12.052Z,8.35
2019-04-06T08:11:46.441Z,7.70
2019-04-06T08:14:20.920Z,7.80
2019-04-06T08:16:57.005Z,6.40
2019-04-06T08:19:31.832Z,6.15
2019-04-06T08:22:06.258Z,6.60
2019-04-06T08:24:41.338Z,5.65
2019-04-06T08:27:17.931Z,5.58
2019-04-06T08:29:52.421Z,4.12
2019-04-06T08:32:26.840Z,5.75
2019-04-06T08:35:04.316Z,4.45
2019-04-06T08:37:38.907Z,4.30
2019-04-06T08:40:13.330Z,4.20
2019-04-06T08:42:47.766Z,4.67
2019-04-06T08:45:22.244Z,6.50
2019-04-06T08:47:56.798Z,4.87
2019-04-06T08:50:31.290Z,4.35
2019-04-06T08:53:07.309Z,3.83
2019-04-06T08:55:41.771Z,5.80
2019-04-06T08:58:16.203Z,5.08
2019-04-06T09:00:50.742Z,4.70
2019-04-06T09:03:25.258Z,5.00
2019-04-06T09:05:59.974Z,4.05
2019-04-06T09:08:35.155Z,4.00
2019-04-06T09:11:09.668Z,3.83
2019-04-06T09:13:44.667Z,4.33
2019-04-06T09:16:21.599Z,6.45
2019-04-06T09:18:56.197Z,5.47
2019-04-06T09:21:31.649Z,4.33
2019-04-06T09:24:06.406Z,4.17
2019-04-06T09:26:41.645Z,3.70
2019-04-06T09:29:23.877Z,6.60
2019-04-06T09:31:53.932Z,3.02
2019-04-06T09:34:30.995Z,3.42
2019-04-06T09:37:05.221Z,3.47
2019-04-06T09:39:40.723Z,3.95
2019-04-06T09:42:16.649Z,2.67
2019-04-06T09:45:01.939Z,4.95
2019-04-06T09:47:53.101Z,4.60
2019-04-06T09:50:32.142Z,3.02
2019-04-06T09:53:25.384Z,3.10
2019-04-06T09:56:11.225Z,4.28
2019-04-06T09:58:56.633Z,4.08
2019-04-06T10:01:39.510Z,4.15
2019-04-06T10:04:30.640Z,3.95
2019-04-06T10:07:24.678Z,4.20
2019-04-06T10:10:36.281Z,5.62
2019-04-06T10:13:17.073Z,5.47
2019-04-06T10:15:53.196Z,4.80
2019-04-06T10:18:39.285Z,4.70
2019-04-06T10:21:28.720Z,4.35
2019-04-06T10:24:21.157Z,4.60
2019-04-06T10:26:59.971Z,5.80
2019-04-06T10:29:47.606Z,6.08
2019-04-06T10:32:31.839Z,8.15
2019-04-06T10:35:17.716Z,7.95
2019-04-06T10:38:10.274Z,8.43
2019-04-06T10:40:47.525Z,9.75
2019-04-06T10:43:40.146Z,9.40
2019-04-06T10:46:31.440Z,7.58
2019-04-06T10:49:22.872Z,8.68
2019-04-06T10:52:08.192Z,10.32
2019-04-06T10:54:47.967Z,11.10
2019-04-06T10:57:43.993Z,12.35
2019-04-06T11:00:37.916Z,10.90
2019-04-06T11:03:27.665Z,10.48
2019-04-06T11:06:09.754Z,10.85
2019-04-06T11:08:45.851Z,11.08
2019-04-06T11:11:37.125Z,9.85
2019-04-06T11:14:16.080Z,11.10
2019-04-06T11:17:01.999Z,11.70
2019-04-06T11:19:47.462Z,11.53
2019-04-06T11:22:32.658Z,17.42
2019-04-06T11:25:11.049Z,11.95
2019-04-06T11:27:51.875Z,12.88
2019-04-06T11:30:27.960Z,13.70
2019-04-06T11:33:20.553Z,12.93
2019-04-06T11:35:59.704Z,10.80
2019-04-06T11:38:35.871Z,10.45
2019-04-06T11:41:26.916Z,18.50
2019-04-06T11:44:09.048Z,12.40
2019-04-06T11:46:45.816Z,11.68
2019-04-06T11:49:37.184Z,13.43
2019-04-06T11:52:16.337Z,11.22
2019-04-06T11:55:04.991Z,8.15
2019-04-06T11:57:41.098Z,8.23
2019-04-06T12:00:27.449Z,8.70
2019-04-06T12:03:14.694Z,9.08
2019-04-06T12:05:53.535Z,12.85
2019-04-06T12:08:32.144Z,14.20
2019-04-06T12:11:24.594Z,11.43
2019-04-06T12:14:19.660Z,11.38
2019-04-06T12:17:05.041Z,7.30
2019-04-06T12:19:41.124Z,5.95
2019-04-06T12:22:20.265Z,6.20
2019-04-06T12:24:56.935Z,4.95
2019-04-06T12:27:33.039Z,7.10
2019-04-06T12:30:36.631Z,6.65
2019-04-06T12:33:16.754Z,5.72
2019-04-06T12:36:00.564Z,5.62
2019-04-06T12:38:55.034Z,7.40
2019-04-06T12:41:51.160Z,6.17
2019-04-06T12:44:44.898Z,5.10
2019-04-06T12:47:22.824Z,5.25
2019-04-06T12:50:06.629Z,7.87
2019-04-06T12:52:56.483Z,10.90
2019-04-06T12:55:49.682Z,20.27
2019-04-06T12:58:33.960Z,10.20
2019-04-06T13:01:30.157Z,8.38
2019-04-06T13:04:13.724Z,8.55
2019-04-06T13:06:54.472Z,7.72
2019-04-06T13:09:34.858Z,7.60
2019-04-06T13:12:25.007Z,10.60
2019-04-06T13:15:03.929Z,11.10
2019-04-06T13:17:51.249Z,11.05
2019-04-06T13:20:33.003Z,11.53
2019-04-06T13:23:16.499Z,12.30
2019-04-06T13:25:55.315Z,11.65
2019-04-06T13:28:43.910Z,9.10
2019-04-06T13:31:26.042Z,9.38
2019-04-06T13:34:09.941Z,10.40
2019-04-06T13:36:46.338Z,12.75
2019-04-06T13:39:28.636Z,12.10
2019-04-06T13:42:23.088Z,10.75
2019-04-06T13:45:02.571Z,12.15
2019-04-06T13:47:44.481Z,13.60
2019-04-06T13:50:20.654Z,10.48
2019-04-06T13:52:56.726Z,10.85
2019-04-06T13:55:48.460Z,12.95
2019-04-06T13:58:24.583Z,16.25
2019-04-06T14:01:13.789Z,14.07
2019-04-06T14:03:43.915Z,12.15
2019-04-06T14:06:36.437Z,15.60
2019-04-06T14:09:12.522Z,13.60
2019-04-06T14:11:57.425Z,14.05
2019-04-06T14:14:42.378Z,17.98
2019-04-06T14:17:19.343Z,17.25
2019-04-06T14:19:55.781Z,18.23
2019-04-06T14:22:40.868Z,21.42
2019-04-06T14:25:19.653Z,19.90
2019-04-06T14:27:58.883Z,18.75
2019-04-06T14:30:47.123Z,17.10
2019-04-06T14:33:40.820Z,22.93
2019-04-06T14:36:26.233Z,19.42
2019-04-06T14:39:05.544Z,15.72
2019-04-06T14:41:47.715Z,16.15
2019-04-06T14:44:23.816Z,16.97
2019-04-06T14:47:02.758Z,14.70
2019-04-06T14:49:42.021Z,15.53
2019-04-06T14:52:18.599Z,15.88
2019-04-06T14:55:13.238Z,13.93
2019-04-06T14:57:55.648Z,13.40
2019-04-06T15:00:32.044Z,12.73
2019-04-06T15:03:26.215Z,11.22
2019-04-06T15:06:17.299Z,12.60
2019-04-06T15:08:59.354Z,12.73
2019-04-06T15:11:40.964Z,17.00
2019-04-06T15:14:35.241Z,11.12
2019-04-06T15:17:17.315Z,13.00
2019-04-06T15:20:11.365Z,12.58
2019-04-06T15:22:56.659Z,11.60
2019-04-06T15:25:35.842Z,17.00
2019-04-06T15:28:27.335Z,14.55
2019-04-06T15:31:03.506Z,12.65
2019-04-06T15:33:55.902Z,13.88
2019-04-06T15:36:35.514Z,14.05
2019-04-06T15:39:23.604Z,14.98
2019-04-06T15:42:02.880Z,16.85
2019-04-06T15:44:41.714Z,17.57
2019-04-06T15:47:35.230Z,17.32
2019-04-06T15:50:15.034Z,22.75
2019-04-06T15:52:57.137Z,17.70
2019-04-06T15:55:36.385Z,20.48
2019-04-06T15:58:11.005Z,17.77
2019-04-06T16:00:52.978Z,20.27
2019-04-06T16:03:31.852Z,17.70
2019-04-06T16:06:12.706Z,17.17
2019-04-06T16:09:00.560Z,17.05
2019-04-06T16:11:36.738Z,16.90
2019-04-06T16:14:15.720Z,17.30
2019-04-06T16:16:53.294Z,20.00
2019-04-06T16:19:32.205Z,18.80
2019-04-06T16:22:21.168Z,18.50
2019-04-06T16:24:59.900Z,18.67
2019-04-06T16:27:41.977Z,18.27
2019-04-06T16:30:30.490Z,16.42
2019-04-06T16:33:18.599Z,16.77
2019-04-06T16:35:54.672Z,17.62
2019-04-06T16:38:36.811Z,19.00
2019-04-06T16:41:32.035Z,20.52
2019-04-06T16:44:11.273Z,18.10
2019-04-06T16:47:02.474Z,23.90
2019-04-06T16:49:47.876Z,21.77
2019-04-06T16:52:31.090Z,19.67
2019-04-06T16:55:07.805Z,18.75
2019-04-06T16:57:59.810Z,16.85
2019-04-06T17:00:39.031Z,16.97
2019-04-06T17:03:16.873Z,16.93
2019-04-06T17:05:58.432Z,16.52
2019-04-06T17:08:51.912Z,17.82
2019-04-06T17:11:28.130Z,31.07
2019-04-06T17:14:10.405Z,42.35
2019-04-06T17:16:46.592Z,23.85
2019-04-06T17:19:25.739Z,27.52
2019-04-06T17:22:18.451Z,20.37
2019-04-06T17:25:03.752Z,24.72
2019-04-06T17:27:54.952Z,21.15
2019-04-06T17:30:48.903Z,16.67
2019-04-06T17:33:33.765Z,18.70
2019-04-06T17:36:09.790Z,21.70
2019-04-06T17:38:48.887Z,20.68
2019-04-06T17:41:24.935Z,33.33
2019-04-06T17:44:07.011Z,26.85
2019-04-06T17:47:01.911Z,28.60
2019-04-06T17:49:38.181Z,26.57
2019-04-06T17:52:23.351Z,24.60
2019-04-06T17:55:17.108Z,25.23
2019-04-06T17:58:00.716Z,23.07
2019-04-06T18:00:57.287Z,24.35
2019-04-06T18:03:36.039Z,25.65
2019-04-06T18:06:16.347Z,27.15
2019-04-06T18:09:08.417Z,23.83
2019-04-06T18:12:20.497Z,24.98
2019-04-06T18:14:55.157Z,27.00
2019-04-06T18:17:29.979Z,28.67
2019-04-06T18:20:07.305Z,29.02
2019-04-06T18:22:42.139Z,36.23
2019-04-06T18:25:16.617Z,32.28
2019-04-06T18:27:51.406Z,35.23
2019-04-06T18:30:25.985Z,32.05
2019-04-06T18:33:04.682Z,28.42
2019-04-06T18:35:39.356Z,33.55
2019-04-06T18:38:15.748Z,26.42
2019-04-06T18:41:09.592Z,28.60
2019-04-06T18:43:44.081Z,27.42
2019-04-06T18:46:19.055Z,27.45
2019-04-06T18:48:55.544Z,32.90
2019-04-06T18:51:29.966Z,33.08
2019-04-06T18:54:04.454Z,29.25
2019-04-06T18:56:39.085Z,31.15
2019-04-06T18:59:13.999Z,30.48
2019-04-06T19:01:48.523Z,29.92
2019-04-06T19:04:23.022Z,28.92
2019-04-06T19:06:57.529Z,38.02
2019-04-06T19:09:32.012Z,43.45
2019-04-06T19:12:06.439Z,29.15
2019-04-06T19:14:40.868Z,29.15
2019-04-06T19:17:15.274Z,28.40
2019-04-06T19:19:49.978Z,32.03
2019-04-06T19:22:24.521Z,30.90
2019-04-06T19:25:02.098Z,35.63
2019-04-06T19:27:36.545Z,34.20
2019-04-06T19:30:11.096Z,30.43
2019-04-06T19:32:45.607Z,33.88
2019-04-06T19:35:21.723Z,32.40
2019-04-06T19:37:56.781Z,40.33
2019-04-06T19:40:33.523Z,33.00
2019-04-06T19:43:08.105Z,30.45
2019-04-06T19:45:42.973Z,30.35
2019-04-06T19:48:17.679Z,31.55
2019-04-06T19:50:52.192Z,33.83
2019-04-06T19:53:26.629Z,35.52
2019-04-06T19:56:02.758Z,33.55
2019-04-06T19:58:39.927Z,33.50
2019-04-06T20:01:14.711Z,35.13
2019-04-06T20:03:51.118Z,32.45
2019-04-06T20:06:27.777Z,32.50
2019-04-06T20:09:02.219Z,30.85
2019-04-06T20:11:36.763Z,29.80
2019-04-06T20:14:11.186Z,28.47
2019-04-06T20:16:46.355Z,29.90
2019-04-06T20:19:22.550Z,27.27
2019-04-06T20:21:57.761Z,29.52
2019-04-06T20:24:33.925Z,27.55
2019-04-06T20:27:08.378Z,34.08
2019-04-06T20:29:43.099Z,27.10
2019-04-06T20:32:17.595Z,30.05
2019-04-06T20:34:52.243Z,26.07
2019-04-06T20:37:26.815Z,27.45
2019-04-06T20:40:01.812Z,30.35
2019-04-06T20:42:36.917Z,33.28
2019-04-06T20:45:11.517Z,33.30
2019-04-06T20:47:45.988Z,32.28
2019-04-06T20:50:20.428Z,33.10
2019-04-06T20:52:54.885Z,32.05
2019-04-06T20:55:29.702Z,36.20
2019-04-06T20:58:04.303Z,36.85
2019-04-06T21:00:41.846Z,35.17
2019-04-06T21:03:18.110Z,37.25
2019-04-06T21:05:52.589Z,41.02
2019-04-06T21:08:27.031Z,37.48
2019-04-06T21:11:01.790Z,36.73
2019-04-06T21:13:36.746Z,39.63
2019-04-06T21:16:11.349Z,39.50
2019-04-06T21:18:45.820Z,37.25
2019-04-06T21:21:20.948Z,38.20
2019-04-06T21:23:56.042Z,40.33
2019-04-06T21:26:30.563Z,36.90
2019-04-06T21:29:05.073Z,37.65
2019-04-06T21:31:39.701Z,39.50
2019-04-06T21:34:16.566Z,35.83
2019-04-06T21:36:51.077Z,39.10
2019-04-06T21:39:25.786Z,38.02
2019-04-06T21:42:00.671Z,40.40
2019-04-06T21:44:35.341Z,37.28
2019-04-06T21:47:12.100Z,40.48
2019-04-06T21:49:46.670Z,40.23
2019-04-06T21:52:23.844Z,33.53
2019-04-06T21:54:59.085Z,35.60
2019-04-06T21:57:33.778Z,36.25
2019-04-06T22:00:09.154Z,40.92
2019-04-06T22:02:43.729Z,39.05
2019-04-06T22:05:18.685Z,37.42
2019-04-06T22:07:54.623Z,31.40
2019-04-06T22:10:29.815Z,33.80
2019-04-06T22:13:04.930Z,29.77
2019-04-06T22:15:39.488Z,32.00
2019-04-06T22:18:13.917Z,29.50
2019-04-06T22:20:48.896Z,30.08
2019-04-06T22:23:24.071Z,31.10
2019-04-06T22:25:58.840Z,31.97
2019-04-06T22:28:36.656Z,28.92
2019-04-06T22:31:11.194Z,31.27
2019-04-06T22:33:45.673Z,33.83
2019-04-06T22:36:20.061Z,29.87
2019-04-06T22:38:55.063Z,37.08
2019-04-06T22:41:29.843Z,35.23
2019-04-06T22:44:04.540Z,30.82
2019-04-06T22:46:39.001Z,32.45
2019-04-06T22:49:13.488Z,30.40
2019-04-06T22:51:48.286Z,29.95
2019-04-06T22:54:23.012Z,28.23
2019-04-06T22:56:57.717Z,37.33
2019-04-06T22:59:32.516Z,34.05
2019-04-06T23:02:07.673Z,37.28
2019-04-06T23:04:48.589Z,34.75
2019-04-06T23:07:21.757Z,35.60
2019-04-06T23:09:56.361Z,41.75
2019-04-06T23:12:31.802Z,36.33
2019-04-06T23:15:07.099Z,37.73
2019-04-06T23:17:42.054Z,37.40
2019-04-06T23:20:16.666Z,38.45
2019-04-06T23:22:51.496Z,36.77
2019-04-06T23:25:25.936Z,39.30
2019-04-06T23:28:00.945Z,35.65
2019-04-06T23:30:35.411Z,41.77
2019-04-06T23:33:09.881Z,40.65
2019-04-06T23:35:44.890Z,37.60
2019-04-06T23:38:20.114Z,41.30
2019-04-06T23:40:54.788Z,39.50
2019-04-06T23:43:29.592Z,40.48
2019-04-06T23:46:04.092Z,44.03
2019-04-06T23:48:39.125Z,41.53
2019-04-06T23:51:14.137Z,48.85
2019-04-06T23:53:49.027Z,48.87
2019-04-06T23:56:24.084Z,45.90
2019-04-06T23:58:59.423Z,42.98
